Ben — 9VJM4 — position and weather

sailwx.info

Track history (hours):
 
Tides and Currents Weather Stations Pressure Air Temp Water Temp Dewpoint Dewpoint Depression Visibility Wind Speed Wind Dir Waves Ship Positions

Ben

Last reported at 2016-Mar-26 22:24 UTC. Time now 2016-Aug-26 17:30 UTC.
Position N 01°08' E 103°44'.
Warning: this ship's position is months out of date.

Length 127 m; draft 6.6 m.

Type: Ship. MMSI: 565611000.

Date/timePositionNaut miles runAvg speedWind from/ knotsBaromVisibWave heightAir tempDewpointWater temp
2016-Mar-26 22:24N 01°08' E 103°44'1011.9
2016-Mar-26 21:33N 01°13' E 103°53'1212.1
2016-Mar-26 20:33N 01°16' E 104°05'  
2016-Mar-22 10:05N 21°60' E 114°23'711.9
2016-Mar-22 09:28N 22°07' E 114°20'7 1.1
2016-Mar-22 03:19N 22°09' E 114°13'  
2016-Mar-19 22:10N 29°34' E 123°19'912.9
2016-Mar-19 21:26N 29°43' E 123°16'5513.7
2016-Mar-19 17:24N 30°36' E 122°59'2512.5
2016-Mar-19 15:23N 30°56' E 122°41'2312.7
2016-Mar-19 13:32N 31°02' E 122°15'13 9.3
2016-Mar-19 12:06N 31°05' E 121°60'5 8.6
2016-Mar-19 11:32N 31°08' E 121°55'1111.0
2016-Mar-19 10:31N 31°16' E 121°46'1212.2
2016-Mar-19 09:33N 31°23' E 121°35'9 9.1
2016-Mar-19 08:33N 31°29' E 121°26'1110.6
2016-Mar-19 07:33N 31°36' E 121°17'1413.6
2016-Mar-19 06:33N 31°45' E 121°05'1211.9
2016-Mar-19 05:33N 31°51' E 120°54'1 0.3
2016-Mar-19 01:25N 31°53' E 120°54'0 0.1
2016-Mar-19 00:07N 31°53' E 120°54'0 0.0
2016-Mar-18 23:14N 31°53' E 120°54'0 0.0
2016-Mar-18 17:25N 31°53' E 120°54'3 0.4
2016-Mar-18 10:26N 31°50' E 120°54'3 3.4
2016-Mar-18 09:33N 31°48' E 120°57'  
Track history (hours):
 
Tides and Currents Weather Stations Pressure Air Temp Water Temp Dewpoint Dewpoint Depression Visibility Wind Speed Wind Dir Waves Ship Positions

Ben

Last reported at 2016-Mar-26 22:24 UTC. Time now 2016-Aug-26 17:30 UTC.
Position N 01°08' E 103°44'.
Warning: this ship's position is months out of date.

Length 127 m; draft 6.6 m.

Type: Ship. MMSI: 565611000.

Date/timePositionNaut miles runAvg speedWind from/ knotsBaromVisibWave heightAir tempDewpointWater temp
2016-Mar-26 22:24N 01°08' E 103°44'1011.9
2016-Mar-26 21:33N 01°13' E 103°53'1212.1
2016-Mar-26 20:33N 01°16' E 104°05'  
2016-Mar-22 10:05N 21°60' E 114°23'711.9
2016-Mar-22 09:28N 22°07' E 114°20'7 1.1
2016-Mar-22 03:19N 22°09' E 114°13'  
2016-Mar-19 22:10N 29°34' E 123°19'912.9
2016-Mar-19 21:26N 29°43' E 123°16'5513.7
2016-Mar-19 17:24N 30°36' E 122°59'2512.5
2016-Mar-19 15:23N 30°56' E 122°41'2312.7
2016-Mar-19 13:32N 31°02' E 122°15'13 9.3
2016-Mar-19 12:06N 31°05' E 121°60'5 8.6
2016-Mar-19 11:32N 31°08' E 121°55'1111.0
2016-Mar-19 10:31N 31°16' E 121°46'1212.2
2016-Mar-19 09:33N 31°23' E 121°35'9 9.1
2016-Mar-19 08:33N 31°29' E 121°26'1110.6
2016-Mar-19 07:33N 31°36' E 121°17'1413.6
2016-Mar-19 06:33N 31°45' E 121°05'1211.9
2016-Mar-19 05:33N 31°51' E 120°54'1 0.3
2016-Mar-19 01:25N 31°53' E 120°54'0 0.1
2016-Mar-19 00:07N 31°53' E 120°54'0 0.0
2016-Mar-18 23:14N 31°53' E 120°54'0 0.0
2016-Mar-18 17:25N 31°53' E 120°54'3 0.4
2016-Mar-18 10:26N 31°50' E 120°54'3 3.4
2016-Mar-18 09:33N 31°48' E 120°57'  

Dump ship's entire track history